createdAt,value
2023-03-15T00:00:18.191Z,2.80
2023-03-15T00:01:18.166Z,2.60
2023-03-15T00:02:18.160Z,3.00
2023-03-15T00:03:18.162Z,3.50
2023-03-15T00:04:18.108Z,3.40
2023-03-15T00:05:18.093Z,3.40
2023-03-15T00:06:18.075Z,3.80
2023-03-15T00:07:18.052Z,4.20
2023-03-15T00:08:18.034Z,4.00
2023-03-15T00:09:18.012Z,4.00
2023-03-15T00:10:18.025Z,4.00
2023-03-15T00:11:18.002Z,4.40
2023-03-15T00:12:17.982Z,4.90
2023-03-15T00:13:17.964Z,4.30
2023-03-15T00:14:17.961Z,4.40
2023-03-15T00:15:26.628Z,4.40
2023-03-15T00:16:18.007Z,4.70
2023-03-15T00:17:17.916Z,4.90
2023-03-15T00:18:17.924Z,5.20
2023-03-15T00:19:17.897Z,5.40
2023-03-15T00:20:17.912Z,5.00
2023-03-15T00:21:17.857Z,4.30
2023-03-15T00:22:17.871Z,4.60
2023-03-15T00:23:17.838Z,5.10
2023-03-15T00:24:17.849Z,5.30
2023-03-15T00:25:17.826Z,5.60
2023-03-15T00:26:17.815Z,5.50
2023-03-15T00:27:17.812Z,4.90
2023-03-15T00:28:17.778Z,5.50
2023-03-15T00:29:17.787Z,5.60
2023-03-15T00:30:17.773Z,4.90
2023-03-15T00:31:17.817Z,4.60
2023-03-15T00:32:17.749Z,5.30
2023-03-15T00:33:17.720Z,5.40
2023-03-15T00:34:17.698Z,6.40
2023-03-15T00:35:17.698Z,6.00
2023-03-15T00:36:17.684Z,5.20
2023-03-15T00:37:17.662Z,5.30
2023-03-15T00:38:17.670Z,4.50
2023-03-15T00:39:17.631Z,4.90
2023-03-15T00:40:17.655Z,4.30
2023-03-15T00:41:17.619Z,5.60
2023-03-15T00:42:17.607Z,5.20
2023-03-15T00:43:17.579Z,5.00
2023-03-15T00:44:17.571Z,4.80
2023-03-15T00:45:17.570Z,4.70
2023-03-15T00:46:17.616Z,4.90
2023-03-15T00:47:17.532Z,5.40
2023-03-15T00:48:17.519Z,6.40
2023-03-15T00:49:17.510Z,5.20
2023-03-15T00:50:17.514Z,4.70
2023-03-15T00:51:17.472Z,4.80
2023-03-15T00:52:17.472Z,4.60
2023-03-15T00:53:17.455Z,5.40
2023-03-15T00:54:17.449Z,5.90
2023-03-15T00:55:17.439Z,5.40
2023-03-15T00:56:17.422Z,5.90
2023-03-15T00:57:17.416Z,5.90
2023-03-15T00:58:17.417Z,5.70
2023-03-15T00:59:17.384Z,5.50
2023-03-15T01:00:17.380Z,5.40
2023-03-15T01:01:17.458Z,5.10
2023-03-15T01:02:17.369Z,6.00
2023-03-15T01:03:17.362Z,5.40
2023-03-15T01:04:17.325Z,6.40
2023-03-15T01:05:17.326Z,5.40
2023-03-15T01:06:17.301Z,5.20
2023-03-15T01:07:17.270Z,5.10
2023-03-15T01:08:17.272Z,5.10
2023-03-15T01:09:17.240Z,5.40
2023-03-15T01:10:17.239Z,5.50
2023-03-15T01:11:17.224Z,5.00
2023-03-15T01:12:17.209Z,4.80
2023-03-15T01:13:17.199Z,5.20
2023-03-15T01:14:17.185Z,4.90
2023-03-15T01:15:17.200Z,4.10
2023-03-15T01:16:17.284Z,5.60
2023-03-15T01:17:17.143Z,5.60
2023-03-15T01:18:17.140Z,5.00
2023-03-15T01:19:17.126Z,4.80
2023-03-15T01:20:17.140Z,5.60
2023-03-15T01:21:17.097Z,5.20
2023-03-15T01:22:17.096Z,4.70
2023-03-15T01:23:17.082Z,4.80
2023-03-15T01:24:17.060Z,5.00
2023-03-15T01:25:17.065Z,5.70
2023-03-15T01:26:17.028Z,4.60
2023-03-15T01:27:17.022Z,5.30
2023-03-15T01:28:17.048Z,4.70
2023-03-15T01:29:17.001Z,5.10
2023-03-15T01:30:17.010Z,4.50
2023-03-15T01:31:17.046Z,5.00
2023-03-15T01:32:16.952Z,4.90
2023-03-15T01:33:16.945Z,4.50
2023-03-15T01:34:16.941Z,4.90
2023-03-15T01:35:16.926Z,5.30
2023-03-15T01:36:16.921Z,5.20
2023-03-15T01:37:16.896Z,4.60
2023-03-15T01:38:16.883Z,3.80
2023-03-15T01:39:16.872Z,4.40
2023-03-15T01:40:16.905Z,4.30
2023-03-15T01:41:16.852Z,4.10
2023-03-15T01:42:16.825Z,3.70
2023-03-15T01:43:16.843Z,4.30
2023-03-15T01:44:16.812Z,3.90
2023-03-15T01:45:16.853Z,3.50
2023-03-15T01:46:16.810Z,3.10
2023-03-15T01:47:16.799Z,2.90
2023-03-15T01:48:16.744Z,3.00
2023-03-15T01:49:16.735Z,3.40
2023-03-15T01:50:16.746Z,3.50
2023-03-15T01:51:16.737Z,3.80
2023-03-15T01:52:16.705Z,2.70
2023-03-15T01:53:16.673Z,3.50
2023-03-15T01:54:16.687Z,2.90
2023-03-15T01:55:16.712Z,2.80
2023-03-15T01:56:16.643Z,2.90
2023-03-15T01:57:16.636Z,2.60
2023-03-15T01:58:16.627Z,2.70
2023-03-15T01:59:16.644Z,2.20
2023-03-15T02:00:16.644Z,2.90
2023-03-15T02:01:16.640Z,2.30
2023-03-15T02:02:16.756Z,2.60
2023-03-15T02:03:16.552Z,2.60
2023-03-15T02:04:16.560Z,2.60
2023-03-15T02:05:16.556Z,2.70
2023-03-15T02:06:16.513Z,2.90
2023-03-15T02:07:16.506Z,2.30
2023-03-15T02:08:16.484Z,2.30
2023-03-15T02:09:16.482Z,2.30
2023-03-15T02:10:16.483Z,2.90
2023-03-15T02:11:16.454Z,2.90
2023-03-15T02:12:16.436Z,2.60
2023-03-15T02:13:16.449Z,2.60
2023-03-15T02:14:16.407Z,2.50
2023-03-15T02:15:16.429Z,2.80
2023-03-15T02:16:16.433Z,2.80
2023-03-15T02:17:16.383Z,2.40
2023-03-15T02:18:16.357Z,2.50
2023-03-15T02:19:16.355Z,2.40
2023-03-15T02:20:16.354Z,2.80
2023-03-15T02:21:16.343Z,2.80
2023-03-15T02:22:16.321Z,2.50
2023-03-15T02:23:16.318Z,3.10
2023-03-15T02:24:16.296Z,3.30
2023-03-15T02:25:16.312Z,2.60
2023-03-15T02:26:16.265Z,2.80
2023-03-15T02:27:16.292Z,2.40
2023-03-15T02:28:16.232Z,2.90
2023-03-15T02:29:16.252Z,2.70
2023-03-15T02:30:16.223Z,2.30
2023-03-15T02:31:16.243Z,3.30
2023-03-15T02:32:16.177Z,2.90
2023-03-15T02:33:16.176Z,3.10
2023-03-15T02:34:16.175Z,3.10
2023-03-15T02:35:16.159Z,2.40
2023-03-15T02:36:16.126Z,2.60
2023-03-15T02:37:16.135Z,2.60
2023-03-15T02:38:16.119Z,2.40
2023-03-15T02:39:16.086Z,2.50
2023-03-15T02:40:16.086Z,2.90
2023-03-15T02:41:16.092Z,2.30
2023-03-15T02:42:16.054Z,2.80
2023-03-15T02:43:16.037Z,2.80
2023-03-15T02:44:16.065Z,2.80
2023-03-15T02:45:16.018Z,2.80
2023-03-15T02:46:16.083Z,3.00
2023-03-15T02:47:15.999Z,3.60
2023-03-15T02:48:16.006Z,3.20
2023-03-15T02:49:15.969Z,3.10
2023-03-15T02:50:15.960Z,3.40
2023-03-15T02:51:15.950Z,3.70
2023-03-15T02:52:15.943Z,4.40
2023-03-15T02:53:15.939Z,3.80
2023-03-15T02:54:15.901Z,4.10
2023-03-15T02:55:15.915Z,3.90
2023-03-15T02:56:15.878Z,4.40
2023-03-15T02:57:15.865Z,4.30
2023-03-15T02:58:15.842Z,4.60
2023-03-15T02:59:15.852Z,4.40
2023-03-15T03:00:24.516Z,4.90
2023-03-15T03:01:15.865Z,4.90
2023-03-15T03:02:15.805Z,4.50
2023-03-15T03:03:15.806Z,5.50
2023-03-15T03:04:15.807Z,4.70
2023-03-15T03:05:15.779Z,4.60
2023-03-15T03:06:15.776Z,4.80
2023-03-15T03:07:15.758Z,4.90
2023-03-15T03:08:15.735Z,4.80
2023-03-15T03:09:15.723Z,5.00
2023-03-15T03:10:15.711Z,4.90
2023-03-15T03:11:15.689Z,4.70
2023-03-15T03:12:15.679Z,4.80
2023-03-15T03:13:15.669Z,4.20
2023-03-15T03:14:15.663Z,4.50
2023-03-15T03:15:15.649Z,5.20
2023-03-15T03:16:15.698Z,4.60
2023-03-15T03:17:15.611Z,4.30
2023-03-15T03:18:15.598Z,4.60
2023-03-15T03:19:15.590Z,4.50
2023-03-15T03:20:15.580Z,4.50
2023-03-15T03:21:15.559Z,4.60
2023-03-15T03:22:15.536Z,4.50
2023-03-15T03:23:15.535Z,4.50
2023-03-15T03:24:15.520Z,4.50
2023-03-15T03:25:15.514Z,3.80
2023-03-15T03:26:15.475Z,4.40
2023-03-15T03:27:15.473Z,4.80
2023-03-15T03:28:15.454Z,4.30
2023-03-15T03:29:15.458Z,4.00
2023-03-15T03:30:15.446Z,4.20
2023-03-15T03:31:15.494Z,3.90
2023-03-15T03:32:15.403Z,4.60
2023-03-15T03:33:15.426Z,5.10
2023-03-15T03:34:15.406Z,4.20
2023-03-15T03:35:16.246Z,4.60
2023-03-15T03:36:15.388Z,3.80
2023-03-15T03:37:15.356Z,4.10
2023-03-15T03:38:15.337Z,4.40
2023-03-15T03:39:15.325Z,4.30
2023-03-15T03:40:15.357Z,4.20
2023-03-15T03:41:15.346Z,4.10
2023-03-15T03:42:15.283Z,4.60
2023-03-15T03:43:15.263Z,4.60
2023-03-15T03:44:15.256Z,3.80
2023-03-15T03:45:15.274Z,4.80
2023-03-15T03:46:15.247Z,4.30
2023-03-15T03:47:15.215Z,4.60
2023-03-15T03:48:15.210Z,4.10
2023-03-15T03:49:15.192Z,4.50
2023-03-15T04:02:52.978Z,4.50
2023-03-15T04:03:52.944Z,4.40
2023-03-15T04:04:52.965Z,3.80
2023-03-15T04:05:52.942Z,4.30
2023-03-15T04:06:52.906Z,4.70
2023-03-15T04:07:52.888Z,4.40
2023-03-15T04:08:52.879Z,4.60
2023-03-15T04:09:52.882Z,5.60
2023-03-15T04:10:52.912Z,4.90
2023-03-15T04:11:52.857Z,5.90
2023-03-15T04:12:52.828Z,6.00
2023-03-15T04:13:52.826Z,5.20
2023-03-15T04:14:52.818Z,5.10
2023-03-15T04:15:52.814Z,5.40
2023-03-15T04:17:00.294Z,6.10
2023-03-15T04:17:52.771Z,5.40
2023-03-15T04:18:52.764Z,5.50
2023-03-15T04:19:52.745Z,5.90
2023-03-15T04:20:52.744Z,5.20
2023-03-15T04:21:52.710Z,5.70
2023-03-15T04:22:52.740Z,5.60
2023-03-15T04:23:52.692Z,5.90
2023-03-15T04:24:52.699Z,6.10
2023-03-15T04:25:52.672Z,6.10
2023-03-15T04:26:52.651Z,6.60
2023-03-15T04:27:52.642Z,6.40
2023-03-15T04:28:52.650Z,5.70
2023-03-15T04:29:52.621Z,6.60
2023-03-15T04:30:52.632Z,6.80
2023-03-15T04:31:52.586Z,7.60
2023-03-15T04:32:52.637Z,9.70
2023-03-15T04:33:52.572Z,8.90
2023-03-15T04:34:52.572Z,7.40
2023-03-15T04:35:52.609Z,7.00
2023-03-15T04:36:52.528Z,7.80
2023-03-15T04:37:52.545Z,6.70
2023-03-15T04:38:52.498Z,6.90
2023-03-15T04:39:52.572Z,7.50
2023-03-15T04:40:52.500Z,7.20
2023-03-15T04:41:52.469Z,8.00
2023-03-15T04:42:59.967Z,7.80
2023-03-15T04:44:00.945Z,7.30
2023-03-15T04:44:59.945Z,7.40
2023-03-15T04:46:01.144Z,7.60
2023-03-15T04:46:59.954Z,7.60
2023-03-15T04:47:52.375Z,7.20
2023-03-15T04:49:00.903Z,8.00
2023-03-15T04:49:59.875Z,8.00
2023-03-15T04:51:01.058Z,8.60
2023-03-15T04:51:59.823Z,7.60
2023-03-15T04:52:59.854Z,8.20
2023-03-15T04:53:52.313Z,8.30
2023-03-15T04:54:59.800Z,9.40
2023-03-15T04:56:03.679Z,8.90
2023-03-15T04:56:59.774Z,7.90
2023-03-15T04:57:52.252Z,7.80
2023-03-15T04:58:52.247Z,7.90
2023-03-15T04:59:52.238Z,8.10
2023-03-15T05:00:52.239Z,8.80
2023-03-15T05:01:52.293Z,8.20
2023-03-15T05:02:52.201Z,8.30
2023-03-15T05:03:52.198Z,9.40
2023-03-15T05:04:52.182Z,8.50
2023-03-15T05:05:52.181Z,8.30
2023-03-15T05:06:52.158Z,8.70
2023-03-15T05:07:52.146Z,9.10
2023-03-15T05:08:52.131Z,8.40
2023-03-15T05:09:52.117Z,8.70
2023-03-15T05:10:52.129Z,9.20
2023-03-15T05:11:59.600Z,9.20
2023-03-15T05:12:52.087Z,9.20
2023-03-15T05:13:52.069Z,9.90
2023-03-15T05:14:54.158Z,8.70
2023-03-15T05:15:52.051Z,9.00
2023-03-15T05:16:52.035Z,9.40
2023-03-15T05:17:52.001Z,10.50
2023-03-15T05:18:52.008Z,9.30
2023-03-15T05:19:51.999Z,9.50
2023-03-15T05:20:51.992Z,9.70
2023-03-15T05:21:51.958Z,9.50
2023-03-15T05:22:51.984Z,9.30
2023-03-15T05:23:51.940Z,9.50
2023-03-15T05:24:51.939Z,9.40
2023-03-15T05:25:51.919Z,10.10
2023-03-15T05:26:51.900Z,10.60
2023-03-15T05:27:51.879Z,9.90
2023-03-15T05:28:51.884Z,10.50
2023-03-15T05:29:51.862Z,10.20
2023-03-15T05:30:51.852Z,10.10
2023-03-15T05:31:51.863Z,10.60
2023-03-15T05:32:51.829Z,10.20
2023-03-15T05:33:51.816Z,10.20
2023-03-15T05:34:51.802Z,10.60
2023-03-15T05:35:51.827Z,9.80
2023-03-15T05:36:51.781Z,10.10
2023-03-15T05:37:51.752Z,10.60
2023-03-15T05:38:51.784Z,10.50
2023-03-15T05:39:51.760Z,9.70
2023-03-15T05:40:51.736Z,10.50
2023-03-15T05:41:51.720Z,10.90
2023-03-15T05:42:51.689Z,9.50
2023-03-15T05:43:51.678Z,9.80
2023-03-15T05:44:51.673Z,11.10
2023-03-15T05:45:51.719Z,9.50
2023-03-15T05:46:51.647Z,10.80
2023-03-15T05:47:51.626Z,10.00
2023-03-15T05:48:51.610Z,10.20
2023-03-15T05:49:51.596Z,11.40
2023-03-15T05:50:51.612Z,9.50
2023-03-15T05:51:51.568Z,11.40
2023-03-15T05:52:51.562Z,10.50
2023-03-15T05:53:51.538Z,10.40
2023-03-15T05:54:51.529Z,11.40
2023-03-15T05:55:51.536Z,10.50
2023-03-15T05:56:51.506Z,11.00
2023-03-15T05:57:51.511Z,10.10
2023-03-15T05:58:51.486Z,9.50
2023-03-15T05:59:52.675Z,9.90
2023-03-15T06:00:51.477Z,10.20
2023-03-15T06:01:51.455Z,9.60
2023-03-15T06:02:51.434Z,10.40
2023-03-15T06:03:51.472Z,10.70
2023-03-15T06:04:51.406Z,10.60
2023-03-15T06:05:51.408Z,10.30
2023-03-15T06:06:51.394Z,9.10
2023-03-15T06:07:51.368Z,10.10
2023-03-15T06:08:51.357Z,11.20
2023-03-15T06:09:51.336Z,11.40
2023-03-15T06:10:51.335Z,10.80
2023-03-15T06:11:51.330Z,10.30
2023-03-15T06:12:51.316Z,10.80
2023-03-15T06:13:51.278Z,10.70
2023-03-15T06:14:51.286Z,11.10
2023-03-15T06:15:51.284Z,10.20
2023-03-15T06:16:51.310Z,11.30
2023-03-15T06:17:51.238Z,10.00
2023-03-15T06:18:51.216Z,10.30
2023-03-15T06:19:51.206Z,10.60
2023-03-15T06:20:51.206Z,10.60
2023-03-15T06:21:51.204Z,11.00
2023-03-15T06:22:51.175Z,10.10
2023-03-15T06:23:51.155Z,9.80
2023-03-15T06:24:51.147Z,10.50
2023-03-15T06:25:51.145Z,10.10
2023-03-15T06:26:51.135Z,10.70
2023-03-15T06:27:51.104Z,10.20
2023-03-15T06:28:51.111Z,10.40
2023-03-15T06:29:51.108Z,10.40
2023-03-15T06:30:51.121Z,10.00
2023-03-15T06:31:51.045Z,10.90
2023-03-15T06:32:51.086Z,10.10
2023-03-15T06:33:51.048Z,10.60
2023-03-15T06:34:51.021Z,10.80
2023-03-15T06:35:51.061Z,10.00
2023-03-15T06:36:51.000Z,10.00
2023-03-15T06:37:51.071Z,9.60
2023-03-15T06:38:50.967Z,9.60
2023-03-15T06:39:50.957Z,9.70
2023-03-15T06:40:50.958Z,10.10
2023-03-15T06:41:50.928Z,9.80
2023-03-15T06:42:50.917Z,9.20
2023-03-15T06:43:50.910Z,10.50
2023-03-15T06:44:51.291Z,9.80
2023-03-15T06:45:50.919Z,10.80
2023-03-15T06:46:50.868Z,10.20
2023-03-15T06:47:50.882Z,11.20
2023-03-15T06:48:50.844Z,10.80
2023-03-15T06:49:50.859Z,9.90
2023-03-15T06:50:50.836Z,10.50
2023-03-15T06:51:50.807Z,10.10
2023-03-15T06:52:50.787Z,10.30
2023-03-15T06:53:50.774Z,10.10
2023-03-15T06:54:50.764Z,10.10
2023-03-15T06:55:50.791Z,10.30
2023-03-15T06:56:50.753Z,9.50
2023-03-15T06:57:50.718Z,10.00
2023-03-15T06:58:50.728Z,10.50
2023-03-15T06:59:50.712Z,10.50
2023-03-15T07:00:50.704Z,9.60
2023-03-15T07:01:50.781Z,10.20
2023-03-15T07:02:50.689Z,9.80
2023-03-15T07:03:50.660Z,10.50
2023-03-15T07:04:50.644Z,9.40
2023-03-15T07:05:50.645Z,9.30
2023-03-15T07:06:50.620Z,9.40
2023-03-15T07:07:50.616Z,9.60
2023-03-15T07:08:50.597Z,9.00
2023-03-15T07:09:50.583Z,10.00
2023-03-15T07:10:50.613Z,9.10
2023-03-15T07:11:50.593Z,8.50
2023-03-15T07:12:50.529Z,8.60
2023-03-15T07:13:50.552Z,8.70
2023-03-15T07:14:50.531Z,9.80
2023-03-15T07:15:50.521Z,10.00
2023-03-15T07:16:50.484Z,9.10
2023-03-15T07:17:50.494Z,8.90
2023-03-15T07:18:50.456Z,7.80
2023-03-15T07:19:56.498Z,8.80
2023-03-15T07:20:51.462Z,9.10
2023-03-15T07:21:50.424Z,9.10
2023-03-15T07:22:50.403Z,7.90
2023-03-15T07:23:50.407Z,8.80
2023-03-15T07:24:50.392Z,7.90
2023-03-15T07:25:55.051Z,8.60
2023-03-15T07:26:51.386Z,8.10
2023-03-15T07:27:50.374Z,7.60
2023-03-15T07:28:50.348Z,8.60
2023-03-15T07:29:50.351Z,8.10
2023-03-15T07:30:50.319Z,8.40
2023-03-15T07:31:50.363Z,9.30
2023-03-15T07:32:50.451Z,7.70
2023-03-15T07:33:50.294Z,7.30
2023-03-15T07:34:50.266Z,8.10
2023-03-15T07:35:50.285Z,7.90
2023-03-15T07:36:50.234Z,8.70
2023-03-15T07:37:50.239Z,7.10
2023-03-15T07:38:50.216Z,7.10
2023-03-15T07:39:50.203Z,8.10
2023-03-15T07:40:50.215Z,8.40
2023-03-15T07:41:50.172Z,8.30
2023-03-15T07:42:50.141Z,8.10
2023-03-15T07:43:50.155Z,7.50
2023-03-15T07:44:50.147Z,8.10
2023-03-15T07:45:50.138Z,7.20
2023-03-15T07:46:50.122Z,7.50
2023-03-15T07:47:50.091Z,7.00
2023-03-15T07:48:50.711Z,7.90
2023-03-15T07:49:50.077Z,7.50
2023-03-15T07:50:50.088Z,7.10
2023-03-15T07:51:50.038Z,7.50
2023-03-15T07:52:50.030Z,7.00
2023-03-15T07:53:50.013Z,6.30
2023-03-15T07:54:50.023Z,7.20
2023-03-15T07:55:50.004Z,7.20
2023-03-15T07:56:50.002Z,6.20
2023-03-15T07:57:52.188Z,6.20
2023-03-15T07:58:49.983Z,7.40
2023-03-15T07:59:49.941Z,7.00
2023-03-15T08:00:49.935Z,6.40
2023-03-15T08:01:49.959Z,6.60
2023-03-15T08:02:49.936Z,6.90
2023-03-15T08:03:49.892Z,6.30
2023-03-15T08:04:49.861Z,6.90
2023-03-15T08:05:49.867Z,6.50
2023-03-15T08:06:49.853Z,6.30
2023-03-15T08:07:49.895Z,6.50
2023-03-15T08:08:49.808Z,6.90
2023-03-15T08:09:49.808Z,6.30
2023-03-15T08:10:49.870Z,6.60
2023-03-15T08:11:49.779Z,6.80
2023-03-15T08:12:49.828Z,5.70
2023-03-15T08:13:49.750Z,5.80
2023-03-15T08:14:49.762Z,5.80
2023-03-15T08:15:49.752Z,5.80
2023-03-15T08:16:49.736Z,6.20
2023-03-15T08:17:49.726Z,6.00
2023-03-15T08:18:49.698Z,5.80
2023-03-15T08:19:49.692Z,6.30
2023-03-15T08:20:49.691Z,5.40
2023-03-15T08:21:49.649Z,5.20
2023-03-15T08:22:49.653Z,5.20
2023-03-15T08:23:49.625Z,5.70
2023-03-15T08:24:49.619Z,5.50
2023-03-15T08:25:49.620Z,5.80
2023-03-15T08:26:49.590Z,5.30
2023-03-15T08:27:49.674Z,5.10
2023-03-15T08:28:49.549Z,5.50
2023-03-15T08:29:49.554Z,5.20
2023-03-15T08:30:49.540Z,4.80
2023-03-15T08:31:49.609Z,4.50
2023-03-15T08:32:49.540Z,4.80
2023-03-15T08:33:49.505Z,5.20
2023-03-15T08:34:49.499Z,4.90
2023-03-15T08:35:49.524Z,4.10
2023-03-15T08:36:49.496Z,4.80
2023-03-15T08:37:49.527Z,4.20
2023-03-15T08:38:49.431Z,5.20
2023-03-15T08:39:49.423Z,4.70
2023-03-15T08:40:49.421Z,4.60
2023-03-15T08:41:49.398Z,5.30
2023-03-15T08:42:49.381Z,4.60
2023-03-15T08:43:49.363Z,4.30
2023-03-15T08:44:49.348Z,4.70
2023-03-15T08:46:00.530Z,4.40
2023-03-15T08:46:50.410Z,4.60
2023-03-15T08:47:49.374Z,4.90
2023-03-15T08:48:49.295Z,5.40
2023-03-15T08:49:49.281Z,4.70
2023-03-15T08:50:49.288Z,4.60
2023-03-15T08:51:49.269Z,4.30
2023-03-15T08:52:49.253Z,3.60
2023-03-15T08:53:49.238Z,4.40
2023-03-15T08:54:49.230Z,4.30
2023-03-15T08:55:49.234Z,4.10
2023-03-15T08:56:49.200Z,4.70
2023-03-15T08:57:49.193Z,4.00
2023-03-15T08:58:49.161Z,4.20
2023-03-15T08:59:49.177Z,4.20
2023-03-15T09:00:49.158Z,5.10
2023-03-15T09:01:49.157Z,3.50
2023-03-15T09:02:49.138Z,4.00
2023-03-15T09:03:49.097Z,4.60
2023-03-15T09:04:49.111Z,3.70
2023-03-15T09:05:49.099Z,3.70
2023-03-15T09:06:49.071Z,3.70
2023-03-15T09:07:49.060Z,3.20
2023-03-15T09:08:49.059Z,3.80
2023-03-15T09:09:49.034Z,3.60
2023-03-15T09:10:49.027Z,4.40
2023-03-15T09:11:49.006Z,3.90
2023-03-15T09:12:49.016Z,3.90
2023-03-15T09:13:48.993Z,3.70
2023-03-15T09:14:48.956Z,3.60
2023-03-15T09:15:48.987Z,3.60
2023-03-15T09:16:49.008Z,3.20
2023-03-15T09:17:48.949Z,3.90
2023-03-15T09:18:48.921Z,3.80
2023-03-15T09:19:48.905Z,3.50
2023-03-15T09:20:48.896Z,4.00
2023-03-15T09:21:48.870Z,3.60
2023-03-15T09:22:48.862Z,3.40
2023-03-15T09:23:48.846Z,4.00
2023-03-15T09:24:50.385Z,3.70
2023-03-15T09:25:48.856Z,3.50
2023-03-15T09:26:48.815Z,3.90
2023-03-15T09:27:48.805Z,3.80
2023-03-15T09:28:48.776Z,4.10
2023-03-15T09:29:48.801Z,3.30
2023-03-15T09:30:48.836Z,4.20
2023-03-15T09:31:48.749Z,3.90
2023-03-15T09:32:48.801Z,3.50
2023-03-15T09:33:48.718Z,3.90
2023-03-15T09:34:48.791Z,3.60
2023-03-15T09:35:48.743Z,4.00
2023-03-15T09:36:48.819Z,3.50
2023-03-15T09:37:48.673Z,4.50
2023-03-15T09:38:48.683Z,4.50
2023-03-15T09:39:48.691Z,4.40
2023-03-15T09:40:48.639Z,3.60
2023-03-15T09:41:48.632Z,4.40
2023-03-15T09:42:48.613Z,3.70
2023-03-15T09:43:48.598Z,4.10
2023-03-15T09:44:48.597Z,4.30
2023-03-15T09:45:48.607Z,4.20
2023-03-15T09:46:48.794Z,3.60
2023-03-15T10:02:59.217Z,3.30
2023-03-15T10:03:59.282Z,3.20
2023-03-15T10:04:59.160Z,3.80
2023-03-15T10:05:59.188Z,3.60
2023-03-15T10:06:59.199Z,3.40
2023-03-15T10:07:59.131Z,3.10
2023-03-15T10:08:59.137Z,3.10
2023-03-15T10:09:59.120Z,3.70
2023-03-15T10:10:59.116Z,3.60
2023-03-15T10:11:59.193Z,3.30
2023-03-15T10:12:59.100Z,3.20
2023-03-15T10:13:59.109Z,3.30
2023-03-15T10:14:59.056Z,3.30
2023-03-15T10:15:59.093Z,3.30
2023-03-15T10:16:59.185Z,2.70
2023-03-15T10:17:59.051Z,4.20
2023-03-15T10:18:58.981Z,3.80
2023-03-15T10:19:59.000Z,4.10
2023-03-15T10:20:58.972Z,4.00
2023-03-15T10:21:59.093Z,4.60
2023-03-15T10:22:58.938Z,4.00
2023-03-15T10:23:58.932Z,3.20
2023-03-15T10:24:58.948Z,3.70
2023-03-15T10:25:58.910Z,3.10
2023-03-15T10:26:59.035Z,3.40
2023-03-15T10:27:58.881Z,3.70
2023-03-15T10:28:58.865Z,3.50
2023-03-15T10:29:58.856Z,3.20
2023-03-15T10:30:58.892Z,3.70
2023-03-15T10:31:58.986Z,3.70
2023-03-15T10:32:58.890Z,3.80
2023-03-15T10:33:58.800Z,4.00
2023-03-15T10:34:58.872Z,3.50
2023-03-15T10:36:10.711Z,3.40
2023-03-15T10:36:59.772Z,3.70
2023-03-15T10:37:58.753Z,3.80
2023-03-15T10:38:58.749Z,2.90
2023-03-15T10:39:58.754Z,3.40
2023-03-15T10:40:58.715Z,3.40
2023-03-15T10:41:58.845Z,3.30
2023-03-15T10:42:58.685Z,3.20
2023-03-15T10:43:58.670Z,3.40
2023-03-15T10:44:58.663Z,3.20
2023-03-15T10:45:58.649Z,3.70
2023-03-15T10:46:58.791Z,3.30
2023-03-15T10:48:00.675Z,3.20
2023-03-15T10:48:58.724Z,3.30
2023-03-15T10:49:58.608Z,3.80
2023-03-15T10:50:59.355Z,3.20
2023-03-15T10:51:58.568Z,3.10
2023-03-15T10:52:58.580Z,3.30
2023-03-15T10:53:58.537Z,3.40
2023-03-15T10:55:03.958Z,3.40
2023-03-15T10:55:59.515Z,3.60
2023-03-15T10:56:58.515Z,3.10
2023-03-15T10:57:58.487Z,2.90
2023-03-15T10:59:11.584Z,3.20
2023-03-15T10:59:59.457Z,3.50
2023-03-15T11:00:58.455Z,3.40
2023-03-15T11:01:58.473Z,2.70
2023-03-15T11:02:58.469Z,2.80
2023-03-15T11:03:58.407Z,3.00
2023-03-15T11:04:58.395Z,2.60
2023-03-15T11:05:58.392Z,2.90
2023-03-15T11:06:58.378Z,3.10
2023-03-15T11:07:58.366Z,2.80
2023-03-15T11:08:58.344Z,3.10
2023-03-15T11:09:58.326Z,3.20
2023-03-15T11:10:58.331Z,2.70
2023-03-15T11:11:58.387Z,2.80
2023-03-15T11:12:58.290Z,3.10
2023-03-15T11:13:58.289Z,2.90
2023-03-15T11:14:58.267Z,3.20
2023-03-15T11:15:58.296Z,3.30
2023-03-15T11:16:58.251Z,3.10
2023-03-15T11:17:58.227Z,2.70
2023-03-15T11:18:58.208Z,3.20
2023-03-15T11:19:58.202Z,3.00
2023-03-15T11:20:58.209Z,2.70
2023-03-15T11:21:58.242Z,3.10
2023-03-15T11:22:58.168Z,2.60
2023-03-15T11:23:58.147Z,3.10
2023-03-15T11:24:58.348Z,3.30
2023-03-15T11:25:58.136Z,3.10
2023-03-15T11:26:58.119Z,2.80
2023-03-15T11:27:58.105Z,3.00
2023-03-15T11:28:59.708Z,2.80
2023-03-15T11:29:58.070Z,2.90
2023-03-15T11:30:58.058Z,3.10
2023-03-15T11:31:58.046Z,2.90
2023-03-15T11:32:58.125Z,2.80
2023-03-15T11:33:58.020Z,2.90
2023-03-15T11:34:58.017Z,3.00
2023-03-15T11:35:58.025Z,2.90
2023-03-15T11:37:07.521Z,2.50
2023-03-15T11:38:12.863Z,3.10
2023-03-15T11:38:59.341Z,3.20
2023-03-15T11:40:08.787Z,2.80
2023-03-15T11:40:58.941Z,3.00
2023-03-15T11:41:57.920Z,3.20
2023-03-15T11:42:57.902Z,2.70
2023-03-15T11:43:57.900Z,3.60
2023-03-15T11:44:57.880Z,2.90
2023-03-15T11:45:57.933Z,2.90
2023-03-15T11:46:57.887Z,3.30
2023-03-15T11:47:57.838Z,3.80
2023-03-15T11:48:57.826Z,2.90
2023-03-15T11:49:57.822Z,2.90
2023-03-15T11:50:57.824Z,2.90
2023-03-15T11:51:57.844Z,2.70
2023-03-15T11:52:57.782Z,3.20
2023-03-15T11:53:57.751Z,3.20
2023-03-15T11:54:57.747Z,3.10
2023-03-15T11:55:57.741Z,2.80
2023-03-15T11:56:57.736Z,3.40
2023-03-15T11:57:57.785Z,3.70
2023-03-15T11:58:59.121Z,3.20
2023-03-15T11:59:57.827Z,3.30
2023-03-15T12:00:57.683Z,3.50
2023-03-15T12:01:57.838Z,3.60
2023-03-15T12:02:57.695Z,4.00
2023-03-15T12:03:57.631Z,3.30
2023-03-15T12:05:01.748Z,3.50
2023-03-15T12:05:58.622Z,3.10
2023-03-15T12:06:57.617Z,4.20
2023-03-15T12:07:57.585Z,5.10
2023-03-15T12:08:57.571Z,4.20
2023-03-15T12:09:57.553Z,3.80
2023-03-15T12:10:57.561Z,3.50
2023-03-15T12:11:57.534Z,2.80
2023-03-15T12:12:57.615Z,3.10
2023-03-15T12:13:57.502Z,3.10
2023-03-15T12:14:57.532Z,2.90
2023-03-15T12:15:57.515Z,3.50
2023-03-15T12:16:57.476Z,3.80
2023-03-15T12:17:57.570Z,3.60
2023-03-15T12:18:57.446Z,3.50
2023-03-15T12:19:57.427Z,3.20
2023-03-15T12:20:57.544Z,3.80
2023-03-15T12:21:57.412Z,3.50
2023-03-15T12:22:58.320Z,3.70
2023-03-15T12:23:57.372Z,3.50
2023-03-15T12:24:57.372Z,3.40
2023-03-15T12:25:57.355Z,3.10
2023-03-15T12:26:57.345Z,3.40
2023-03-15T12:27:57.373Z,2.90
2023-03-15T12:28:57.320Z,2.70
2023-03-15T12:29:57.300Z,3.30
2023-03-15T12:30:57.446Z,2.40
2023-03-15T12:31:57.298Z,2.30
2023-03-15T12:32:57.310Z,2.20
2023-03-15T12:33:57.249Z,2.60
2023-03-15T12:34:57.251Z,2.20
2023-03-15T12:35:57.247Z,2.30
2023-03-15T12:36:57.258Z,1.90
2023-03-15T12:37:57.192Z,2.50
2023-03-15T12:38:57.179Z,2.30
2023-03-15T12:39:57.167Z,2.40
2023-03-15T12:40:57.170Z,2.70
2023-03-15T12:41:57.154Z,2.50
2023-03-15T12:42:57.157Z,2.50
2023-03-15T12:43:57.109Z,2.20
2023-03-15T12:44:57.099Z,2.30
2023-03-15T12:45:57.148Z,2.30
2023-03-15T12:46:57.106Z,2.50
2023-03-15T12:47:57.074Z,1.90
2023-03-15T12:48:57.058Z,2.60
2023-03-15T12:49:57.038Z,2.20
2023-03-15T12:50:57.037Z,2.20
2023-03-15T12:51:59.279Z,2.30
2023-03-15T12:52:57.012Z,2.40
2023-03-15T12:53:56.978Z,2.60
2023-03-15T12:54:56.981Z,2.80
2023-03-15T12:56:07.901Z,2.50
2023-03-15T12:56:58.003Z,2.70
2023-03-15T12:57:56.947Z,2.40
2023-03-15T12:58:56.932Z,2.80
2023-03-15T12:59:56.899Z,2.30
2023-03-15T13:00:56.912Z,2.40
2023-03-15T13:01:56.888Z,2.80
2023-03-15T13:02:56.969Z,2.60
2023-03-15T13:03:56.853Z,2.50
2023-03-15T13:04:56.846Z,2.30
2023-03-15T13:06:03.944Z,2.60
2023-03-15T13:06:57.842Z,2.50
2023-03-15T13:07:56.855Z,2.10
2023-03-15T13:08:56.813Z,2.30
2023-03-15T13:09:56.783Z,2.30
2023-03-15T13:10:56.779Z,2.50
2023-03-15T13:11:56.762Z,2.40
2023-03-15T13:12:56.740Z,2.30
2023-03-15T13:13:56.731Z,2.20
2023-03-15T13:14:56.721Z,2.40
2023-03-15T13:15:56.714Z,2.40
2023-03-15T13:16:56.737Z,2.50
2023-03-15T13:17:56.679Z,2.20
2023-03-15T13:18:56.675Z,2.40
2023-03-15T13:19:56.670Z,2.20
2023-03-15T13:20:56.651Z,2.10
2023-03-15T13:21:56.623Z,2.40
2023-03-15T13:22:56.621Z,2.10
2023-03-15T13:23:56.622Z,2.20
2023-03-15T13:24:56.592Z,2.40
2023-03-15T13:25:56.598Z,2.70
2023-03-15T13:26:56.552Z,2.50
2023-03-15T13:27:56.547Z,2.50
2023-03-15T13:28:56.540Z,3.00
2023-03-15T13:29:56.530Z,3.30
2023-03-15T13:30:56.577Z,3.10
2023-03-15T13:31:56.500Z,2.70
2023-03-15T13:32:56.551Z,2.50
2023-03-15T13:33:56.471Z,2.60
2023-03-15T13:34:56.544Z,2.20
2023-03-15T13:35:56.545Z,2.10
2023-03-15T13:36:56.451Z,2.20
2023-03-15T13:37:56.421Z,1.70
2023-03-15T13:38:56.412Z,2.10
2023-03-15T13:39:56.422Z,1.90
2023-03-15T13:40:56.388Z,1.90
2023-03-15T13:41:56.387Z,1.70
2023-03-15T13:42:57.752Z,2.00